createdAt,value
2019-01-12T00:00:24.173Z,24.17
2019-01-12T00:02:51.251Z,23.80
2019-01-12T00:05:18.465Z,25.10
2019-01-12T00:07:45.697Z,26.80
2019-01-12T00:10:12.887Z,23.00
2019-01-12T00:12:40.371Z,25.87
2019-01-12T00:15:07.550Z,27.40
2019-01-12T00:17:34.759Z,21.30
2019-01-12T00:20:02.037Z,23.67
2019-01-12T00:22:29.325Z,24.33
2019-01-12T00:24:56.517Z,27.30
2019-01-12T00:27:23.711Z,28.13
2019-01-12T00:29:51.180Z,25.27
2019-01-12T00:32:18.391Z,26.50
2019-01-12T00:34:45.448Z,24.90
2019-01-12T00:37:12.629Z,23.47
2019-01-12T00:39:39.748Z,22.07
2019-01-12T00:42:07.223Z,21.30
2019-01-12T00:44:34.378Z,23.53
2019-01-12T00:47:01.928Z,24.27
2019-01-12T00:49:29.084Z,24.87
2019-01-12T00:51:56.268Z,27.93
2019-01-12T00:54:23.478Z,23.93
2019-01-12T00:56:50.870Z,24.97
2019-01-12T00:59:18.024Z,24.60
2019-01-12T01:01:45.224Z,26.30
2019-01-12T01:04:12.382Z,23.60
2019-01-12T01:06:39.567Z,26.40
2019-01-12T01:09:08.370Z,26.20
2019-01-12T01:11:35.750Z,27.57
2019-01-12T01:14:03.056Z,32.33
2019-01-12T01:16:30.271Z,28.63
2019-01-12T01:18:57.434Z,26.30
2019-01-12T01:21:24.614Z,23.67
2019-01-12T01:23:51.806Z,21.23
2019-01-12T01:26:18.987Z,25.53
2019-01-12T01:28:46.185Z,22.30
2019-01-12T01:31:13.407Z,22.63
2019-01-12T01:33:40.570Z,24.07
2019-01-12T01:36:07.679Z,21.73
2019-01-12T01:38:34.891Z,26.40
2019-01-12T01:41:02.063Z,23.47
2019-01-12T01:43:29.256Z,23.17
2019-01-12T01:45:56.468Z,23.20
2019-01-12T01:48:23.633Z,23.53
2019-01-12T01:50:50.763Z,28.80
2019-01-12T01:53:17.979Z,26.13
2019-01-12T01:55:45.128Z,22.97
2019-01-12T01:58:12.217Z,24.57
2019-01-12T02:00:40.030Z,20.10
2019-01-12T02:03:07.113Z,23.90
2019-01-12T02:05:34.231Z,24.00
2019-01-12T02:08:01.421Z,21.13
2019-01-12T02:10:28.896Z,20.20
2019-01-12T02:12:56.112Z,24.27
2019-01-12T02:15:23.342Z,21.93
2019-01-12T02:17:50.394Z,22.77
2019-01-12T02:20:17.558Z,20.17
2019-01-12T02:22:45.084Z,17.77
2019-01-12T02:25:12.764Z,21.47
2019-01-12T02:27:39.912Z,20.17
2019-01-12T02:30:11.494Z,19.43
2019-01-12T02:32:38.646Z,21.33
2019-01-12T02:35:05.918Z,20.63
2019-01-12T02:37:33.131Z,22.00
2019-01-12T02:40:00.383Z,18.37
2019-01-12T02:42:27.544Z,17.93
2019-01-12T02:44:54.660Z,19.03
2019-01-12T02:47:21.836Z,22.33
2019-01-12T02:49:49.002Z,20.60
2019-01-12T02:52:16.214Z,20.73
2019-01-12T02:54:43.388Z,20.53
2019-01-12T02:57:10.573Z,20.43
2019-01-12T02:59:38.032Z,20.70
2019-01-12T03:02:05.211Z,18.03
2019-01-12T03:04:32.366Z,22.23
2019-01-12T03:06:59.490Z,20.90
2019-01-12T03:09:26.633Z,21.93
2019-01-12T03:11:53.812Z,22.13
2019-01-12T03:14:21.112Z,23.93
2019-01-12T03:16:48.294Z,19.50
2019-01-12T03:19:15.458Z,22.83
2019-01-12T03:21:44.523Z,20.93
2019-01-12T03:24:11.738Z,20.90
2019-01-12T03:26:38.825Z,20.83
2019-01-12T03:29:06.038Z,23.33
2019-01-12T03:31:33.089Z,22.90
2019-01-12T03:34:00.250Z,21.47
2019-01-12T03:36:27.442Z,20.17
2019-01-12T03:38:54.632Z,22.87
2019-01-12T03:41:21.791Z,20.77
2019-01-12T03:43:49.017Z,24.10
2019-01-12T03:46:16.287Z,20.87
2019-01-12T03:48:43.465Z,22.33
2019-01-12T03:51:10.896Z,21.80
2019-01-12T03:53:38.252Z,20.40
2019-01-12T03:56:05.428Z,19.10
2019-01-12T03:58:32.655Z,21.80
2019-01-12T04:00:59.832Z,19.30
2019-01-12T04:03:27.001Z,28.33
2019-01-12T04:05:54.101Z,19.10
2019-01-12T04:08:21.197Z,19.57
2019-01-12T04:10:48.380Z,17.53
2019-01-12T04:13:15.598Z,19.37
2019-01-12T04:15:42.751Z,21.27
2019-01-12T04:18:10.212Z,25.60
2019-01-12T04:20:37.406Z,20.00
2019-01-12T04:23:04.567Z,20.23
2019-01-12T04:25:33.858Z,19.33
2019-01-12T04:28:01.190Z,18.20
2019-01-12T04:30:28.368Z,18.30
2019-01-12T04:32:55.420Z,24.77
2019-01-12T04:35:22.625Z,19.20
2019-01-12T04:37:49.788Z,18.57
2019-01-12T04:40:18.063Z,21.50
2019-01-12T04:42:45.295Z,26.43
2019-01-12T04:45:12.527Z,18.97
2019-01-12T04:47:39.582Z,22.47
2019-01-12T04:50:10.906Z,19.43
2019-01-12T04:52:38.096Z,20.00
2019-01-12T04:55:05.372Z,19.30
2019-01-12T04:57:32.885Z,20.67
2019-01-12T05:00:00.162Z,20.00
2019-01-12T05:02:28.024Z,21.27
2019-01-12T05:04:55.212Z,17.77
2019-01-12T05:07:22.611Z,19.97
2019-01-12T05:09:49.760Z,20.93
2019-01-12T05:12:16.966Z,17.00
2019-01-12T05:14:44.110Z,19.97
2019-01-12T05:17:11.320Z,17.40
2019-01-12T05:19:38.492Z,18.77
2019-01-12T05:22:05.692Z,15.67
2019-01-12T05:24:32.867Z,18.97
2019-01-12T05:27:00.049Z,16.50
2019-01-12T05:29:27.238Z,15.70
2019-01-12T05:31:54.294Z,17.33
2019-01-12T05:34:22.397Z,27.70
2019-01-12T05:36:49.886Z,20.87
2019-01-12T05:39:17.055Z,18.80
2019-01-12T05:41:44.273Z,17.97
2019-01-12T05:44:11.439Z,18.27
2019-01-12T05:46:38.628Z,19.40
2019-01-12T05:49:05.845Z,21.30
2019-01-12T05:51:33.054Z,20.00
2019-01-12T05:54:00.250Z,20.63
2019-01-12T05:56:27.495Z,20.13
2019-01-12T05:58:54.717Z,18.43
2019-01-12T06:01:21.903Z,20.60
2019-01-12T06:03:49.111Z,18.80
2019-01-12T06:06:16.311Z,19.13
2019-01-12T06:08:43.494Z,20.10
2019-01-12T06:11:10.669Z,26.00
2019-01-12T06:13:37.757Z,27.00
2019-01-12T06:16:05.007Z,21.53
2019-01-12T06:18:32.286Z,17.77
2019-01-12T06:20:59.336Z,18.13
2019-01-12T06:23:26.546Z,16.27
2019-01-12T06:25:53.731Z,20.67
2019-01-12T06:28:21.236Z,14.30
2019-01-12T06:30:48.473Z,22.13
2019-01-12T06:33:15.548Z,17.47
2019-01-12T06:35:42.940Z,19.50
2019-01-12T06:38:10.145Z,16.33
2019-01-12T06:40:37.332Z,15.33
2019-01-12T06:43:04.528Z,14.90
2019-01-12T06:45:31.681Z,18.37
2019-01-12T06:47:58.770Z,17.43
2019-01-12T06:50:25.819Z,18.90
2019-01-12T06:52:52.995Z,14.70
2019-01-12T06:55:20.089Z,13.63
2019-01-12T06:57:47.315Z,13.60
2019-01-12T07:00:16.387Z,12.60
2019-01-12T07:02:43.589Z,13.47
2019-01-12T07:05:10.769Z,21.93
2019-01-12T07:07:38.241Z,14.40
2019-01-12T07:10:06.440Z,17.00
2019-01-12T07:12:33.606Z,13.30
2019-01-12T07:15:00.795Z,12.97
2019-01-12T07:17:28.004Z,16.00
2019-01-12T07:19:55.171Z,16.33
2019-01-12T07:22:22.331Z,17.33
2019-01-12T07:24:49.538Z,16.80
2019-01-12T07:27:16.696Z,13.70
2019-01-12T07:29:43.875Z,15.10
2019-01-12T07:32:11.087Z,16.33
2019-01-12T07:34:38.504Z,13.30
2019-01-12T07:37:05.587Z,11.83
2019-01-12T07:39:32.764Z,14.57
2019-01-12T07:41:59.821Z,11.50
2019-01-12T07:44:27.019Z,12.33
2019-01-12T07:46:54.615Z,11.77
2019-01-12T07:49:21.783Z,11.63
2019-01-12T07:51:48.966Z,12.13
2019-01-12T07:54:16.458Z,8.93
2019-01-12T07:56:43.615Z,10.07
2019-01-12T07:59:10.829Z,9.93
2019-01-12T08:01:38.026Z,9.27
2019-01-12T08:04:05.202Z,8.17
2019-01-12T08:06:32.467Z,5.10
2019-01-12T08:08:59.658Z,6.30
2019-01-12T08:11:27.089Z,10.27
2019-01-12T08:13:54.202Z,9.40
2019-01-12T08:16:21.380Z,8.30
2019-01-12T08:18:48.441Z,8.60
2019-01-12T08:21:15.888Z,4.17
2019-01-12T08:23:43.106Z,4.87
2019-01-12T08:26:10.252Z,5.03
2019-01-12T08:28:37.448Z,5.37
2019-01-12T08:31:04.768Z,4.20
2019-01-12T08:33:31.954Z,5.00
2019-01-12T08:35:59.075Z,5.97
2019-01-12T08:38:26.263Z,5.03
2019-01-12T08:40:53.426Z,4.13
2019-01-12T08:43:20.628Z,4.07
2019-01-12T08:45:47.797Z,4.27
2019-01-12T08:48:14.885Z,5.60
2019-01-12T08:50:41.999Z,5.77
2019-01-12T08:53:09.303Z,3.83
2019-01-12T08:55:36.457Z,7.70
2019-01-12T08:58:03.677Z,4.33
2019-01-12T09:00:30.789Z,4.30
2019-01-12T09:02:57.970Z,3.53
2019-01-12T09:05:25.080Z,4.53
2019-01-12T09:07:52.296Z,3.73
2019-01-12T09:10:20.411Z,3.23
2019-01-12T09:12:47.689Z,3.30
2019-01-12T09:15:15.136Z,3.20
2019-01-12T09:17:42.553Z,3.20
2019-01-12T09:20:11.087Z,3.27
2019-01-12T09:22:38.277Z,2.80
2019-01-12T09:25:06.433Z,2.53
2019-01-12T09:27:33.624Z,5.00
2019-01-12T09:30:00.837Z,3.97
2019-01-12T09:32:28.008Z,4.43
2019-01-12T09:34:55.183Z,3.13
2019-01-12T09:37:22.455Z,4.50
2019-01-12T09:39:49.957Z,4.73
2019-01-12T09:42:17.047Z,3.60
2019-01-12T09:44:44.215Z,5.50
2019-01-12T09:47:11.268Z,5.67
2019-01-12T09:49:38.487Z,3.80
2019-01-12T09:52:05.664Z,3.47
2019-01-12T09:54:32.881Z,4.73
2019-01-12T09:57:00.079Z,6.43
2019-01-12T09:59:27.331Z,3.77
2019-01-12T10:01:55.342Z,4.87
2019-01-12T10:04:22.534Z,4.03
2019-01-12T10:06:49.766Z,4.47
2019-01-12T10:09:16.974Z,3.27
2019-01-12T10:11:44.469Z,4.40
2019-01-12T10:14:11.688Z,5.33
2019-01-12T10:16:38.851Z,4.53
2019-01-12T10:19:06.340Z,3.17
2019-01-12T10:21:33.843Z,6.43
2019-01-12T10:24:00.928Z,3.70
2019-01-12T10:26:28.077Z,10.80
2019-01-12T10:28:55.194Z,3.13
2019-01-12T10:31:22.362Z,6.43
2019-01-12T10:33:49.524Z,4.10
2019-01-12T10:36:16.866Z,5.67
2019-01-12T10:38:44.339Z,3.20
2019-01-12T10:41:11.582Z,4.47
2019-01-12T10:43:39.116Z,3.73
2019-01-12T10:46:06.564Z,6.93
2019-01-12T10:48:33.989Z,4.87
2019-01-12T10:51:01.123Z,5.33
2019-01-12T10:53:28.860Z,5.20
2019-01-12T10:55:56.041Z,4.20
2019-01-12T10:58:23.215Z,4.70
2019-01-12T11:00:50.421Z,5.17
2019-01-12T11:03:17.887Z,5.80
2019-01-12T11:05:45.039Z,4.37
2019-01-12T11:08:12.515Z,5.13
2019-01-12T11:10:39.709Z,7.10
2019-01-12T11:13:06.938Z,4.77
2019-01-12T11:15:34.129Z,6.50
2019-01-12T11:18:01.172Z,7.37
2019-01-12T11:20:28.409Z,6.10
2019-01-12T11:22:55.578Z,7.43
2019-01-12T11:25:22.762Z,6.10
2019-01-12T11:27:50.275Z,9.70
2019-01-12T11:30:18.074Z,6.80
2019-01-12T11:32:45.251Z,13.40
2019-01-12T11:35:12.985Z,6.87
2019-01-12T11:37:40.211Z,7.60
2019-01-12T11:40:17.824Z,8.00
2019-01-12T11:42:45.608Z,11.23
2019-01-12T11:45:13.341Z,17.27
2019-01-12T11:47:40.512Z,8.43
2019-01-12T11:50:10.499Z,7.00
2019-01-12T11:52:37.972Z,6.40
2019-01-12T11:55:05.866Z,8.07
2019-01-12T11:57:33.284Z,9.70
2019-01-12T12:00:00.487Z,7.47
2019-01-12T12:02:27.943Z,6.57
2019-01-12T12:04:55.178Z,8.43
2019-01-12T12:07:22.387Z,9.03
2019-01-12T12:09:49.583Z,8.60
2019-01-12T12:12:16.770Z,6.20
2019-01-12T12:14:43.954Z,8.57
2019-01-12T12:17:11.215Z,12.00
2019-01-12T12:19:38.737Z,10.70
2019-01-12T12:22:05.982Z,9.63
2019-01-12T12:24:33.221Z,13.83
2019-01-12T12:27:00.395Z,10.00
2019-01-12T12:29:27.583Z,14.17
2019-01-12T12:31:54.872Z,11.13
2019-01-12T12:34:21.953Z,12.00
2019-01-12T12:36:49.585Z,13.90
2019-01-12T12:39:16.851Z,11.13
2019-01-12T12:41:44.313Z,14.23
2019-01-12T12:44:11.464Z,16.13
2019-01-12T12:46:38.934Z,11.87
2019-01-12T12:49:06.091Z,12.87
2019-01-12T12:51:33.263Z,14.50
2019-01-12T12:54:00.602Z,11.33
2019-01-12T12:56:28.019Z,12.70
2019-01-12T12:58:55.193Z,14.57
2019-01-12T13:01:22.377Z,14.83
2019-01-12T13:03:49.537Z,13.57
2019-01-12T13:06:16.774Z,14.87
2019-01-12T13:08:48.452Z,14.37
2019-01-12T13:11:12.961Z,13.93
2019-01-12T13:13:41.290Z,12.90
2019-01-12T13:16:08.404Z,13.27
2019-01-12T13:18:35.605Z,11.90
2019-01-12T13:21:02.847Z,13.13
2019-01-12T13:23:30.367Z,16.70
2019-01-12T13:25:57.563Z,14.53
2019-01-12T13:28:24.757Z,20.13
2019-01-12T13:30:52.207Z,11.93
2019-01-12T13:33:19.590Z,11.83
2019-01-12T13:35:46.657Z,13.80
2019-01-12T13:38:13.920Z,11.63
2019-01-12T13:40:41.090Z,12.90
2019-01-12T13:43:08.279Z,20.00
2019-01-12T13:45:35.457Z,11.77
2019-01-12T13:48:03.188Z,11.83
2019-01-12T13:50:30.288Z,12.50
2019-01-12T13:52:57.514Z,12.77
2019-01-12T13:55:24.702Z,12.00
2019-01-12T13:57:51.766Z,11.83
2019-01-12T14:00:30.324Z,12.90
2019-01-12T14:02:57.522Z,11.83
2019-01-12T14:05:24.748Z,15.10
2019-01-12T14:07:56.045Z,13.43
2019-01-12T14:10:21.366Z,12.80
2019-01-12T14:12:48.658Z,12.90
2019-01-12T14:15:16.345Z,14.50
2019-01-12T14:17:43.428Z,14.87
2019-01-12T14:20:16.483Z,15.70
2019-01-12T14:22:43.847Z,16.57
2019-01-12T14:25:11.006Z,12.83
2019-01-12T14:27:38.156Z,13.80
2019-01-12T14:30:08.109Z,14.03
2019-01-12T14:32:35.567Z,13.43
2019-01-12T14:35:03.260Z,14.47
2019-01-12T14:37:30.498Z,14.30
2019-01-12T14:39:57.880Z,16.57
2019-01-12T14:42:25.371Z,13.20
2019-01-12T14:44:52.865Z,16.40
2019-01-12T14:47:20.057Z,15.37
2019-01-12T14:49:47.117Z,15.80
2019-01-12T14:52:14.354Z,13.40
2019-01-12T14:54:41.526Z,19.70
2019-01-12T14:57:08.717Z,17.27
2019-01-12T14:59:35.953Z,21.00
2019-01-12T15:02:03.211Z,15.40
2019-01-12T15:04:30.380Z,19.97
2019-01-12T15:06:57.647Z,19.13
2019-01-12T15:09:24.790Z,20.23
2019-01-12T15:11:51.961Z,23.40
2019-01-12T15:14:19.448Z,18.00
2019-01-12T15:16:46.601Z,18.20
2019-01-12T15:19:14.053Z,15.90
2019-01-12T15:21:41.564Z,13.30
2019-01-12T15:24:10.179Z,16.77
2019-01-12T15:26:37.373Z,15.60
2019-01-12T15:29:04.580Z,18.50
2019-01-12T15:31:31.725Z,17.23
2019-01-12T15:33:58.888Z,17.73
2019-01-12T15:36:26.042Z,14.60
2019-01-12T15:38:53.164Z,13.53
2019-01-12T15:41:20.670Z,21.57
2019-01-12T15:43:47.861Z,26.27
2019-01-12T15:46:15.390Z,32.63
2019-01-12T15:48:42.574Z,18.83
2019-01-12T15:51:09.696Z,18.20
2019-01-12T15:53:36.876Z,16.13
2019-01-12T15:56:04.085Z,22.50
2019-01-12T15:58:31.303Z,13.00
2019-01-12T16:00:58.511Z,17.87
2019-01-12T16:03:25.982Z,16.10
2019-01-12T16:05:53.099Z,13.63
2019-01-12T16:08:20.445Z,15.77
2019-01-12T16:10:47.644Z,17.30
2019-01-12T16:13:14.748Z,11.70
2019-01-12T16:15:41.901Z,14.93
2019-01-12T16:18:09.404Z,15.73
2019-01-12T16:20:37.904Z,15.80
2019-01-12T16:23:05.150Z,19.17
2019-01-12T16:25:32.323Z,15.83
2019-01-12T16:27:59.527Z,20.03
2019-01-12T16:30:26.715Z,15.33
2019-01-12T16:32:53.885Z,16.27
2019-01-12T16:35:21.144Z,16.73
2019-01-12T16:37:48.327Z,13.13
2019-01-12T16:40:17.569Z,11.00
2019-01-12T16:42:44.820Z,11.80
2019-01-12T16:45:12.272Z,17.77
2019-01-12T16:47:39.368Z,17.70
2019-01-12T16:50:06.609Z,19.70
2019-01-12T16:52:34.070Z,17.23
2019-01-12T16:55:01.305Z,14.30
2019-01-12T16:57:28.603Z,18.47
2019-01-12T16:59:55.786Z,16.70
2019-01-12T17:02:23.028Z,13.50
2019-01-12T17:04:50.208Z,16.03
2019-01-12T17:07:17.409Z,13.77
2019-01-12T17:09:44.911Z,14.23
2019-01-12T17:12:12.198Z,14.97
2019-01-12T17:14:39.372Z,14.73
2019-01-12T17:17:06.604Z,14.50
2019-01-12T17:19:34.116Z,12.50
2019-01-12T17:22:01.527Z,12.50
2019-01-12T17:24:28.801Z,12.07
2019-01-12T17:26:55.997Z,15.57
2019-01-12T17:29:23.242Z,14.20
2019-01-12T17:31:50.606Z,13.10
2019-01-12T17:34:17.792Z,10.23
2019-01-12T17:36:44.856Z,12.87
2019-01-12T17:39:12.059Z,14.30
2019-01-12T17:41:39.532Z,12.83
2019-01-12T17:44:06.983Z,12.23
2019-01-12T17:46:34.405Z,8.60
2019-01-12T17:49:01.605Z,10.17
2019-01-12T17:51:29.085Z,9.23
2019-01-12T17:53:56.307Z,12.50
2019-01-12T17:56:23.517Z,11.97
2019-01-12T17:58:50.999Z,12.20
2019-01-12T18:01:18.154Z,12.73
2019-01-12T18:03:45.451Z,10.83
2019-01-12T18:06:13.732Z,10.83
2019-01-12T18:08:41.060Z,9.97
2019-01-12T18:11:08.283Z,10.93
2019-01-12T18:13:35.390Z,7.90
2019-01-12T18:16:02.712Z,7.67
2019-01-12T18:18:29.933Z,9.07
2019-01-12T18:20:57.025Z,7.40
2019-01-12T18:23:24.201Z,6.57
2019-01-12T18:25:51.749Z,7.13
2019-01-12T18:28:19.249Z,6.30
2019-01-12T18:30:46.443Z,6.20
2019-01-12T18:33:13.554Z,6.90
2019-01-12T18:35:40.720Z,6.53
2019-01-12T18:38:07.925Z,6.93
2019-01-12T18:40:35.173Z,7.27
2019-01-12T18:43:02.414Z,5.83
2019-01-12T18:45:29.659Z,5.50
2019-01-12T18:47:56.850Z,6.53
2019-01-12T18:50:25.129Z,8.20
2019-01-12T18:52:53.144Z,9.27
2019-01-12T18:55:20.688Z,6.17
2019-01-12T18:57:48.314Z,8.43
2019-01-12T19:00:18.555Z,5.40
2019-01-12T19:02:46.187Z,4.50
2019-01-12T19:05:13.862Z,5.47
2019-01-12T19:07:41.316Z,5.07
2019-01-12T19:10:09.160Z,5.43
2019-01-12T19:12:36.479Z,7.17
2019-01-12T19:15:05.599Z,4.00
2019-01-12T19:17:32.847Z,4.00
2019-01-12T19:20:00.291Z,5.70
2019-01-12T19:22:27.747Z,4.93
2019-01-12T19:24:54.948Z,4.13
2019-01-12T19:27:22.135Z,8.23
2019-01-12T19:29:49.325Z,5.37
2019-01-12T19:32:16.545Z,9.10
2019-01-12T19:34:44.025Z,7.57
2019-01-12T19:37:11.145Z,5.40
2019-01-12T19:39:38.658Z,5.70
2019-01-12T19:42:05.995Z,6.07
2019-01-12T19:44:33.196Z,5.97
2019-01-12T19:47:00.389Z,5.97
2019-01-12T19:49:27.665Z,5.97
2019-01-12T19:51:55.179Z,5.80
2019-01-12T19:54:22.402Z,6.10
2019-01-12T19:56:49.626Z,6.33
2019-01-12T19:59:17.107Z,5.33
2019-01-12T20:01:44.765Z,6.00
2019-01-12T20:04:11.931Z,6.50
2019-01-12T20:06:39.074Z,9.43
2019-01-12T20:09:08.101Z,5.37
2019-01-12T20:11:35.404Z,5.97
2019-01-12T20:14:03.105Z,6.13
2019-01-12T20:16:30.628Z,7.60
2019-01-12T20:18:57.701Z,6.47
2019-01-12T20:21:24.897Z,5.13
2019-01-12T20:23:51.979Z,7.47
2019-01-12T20:26:19.168Z,6.80
2019-01-12T20:28:47.315Z,6.27
2019-01-12T20:31:24.013Z,5.97
2019-01-12T20:34:47.756Z,6.73
2019-01-12T20:37:51.965Z,4.40
2019-01-12T20:40:55.901Z,7.20
2019-01-12T20:44:02.268Z,4.63
2019-01-12T20:47:13.212Z,3.90
2019-01-12T20:50:06.233Z,5.90
2019-01-12T20:53:03.206Z,3.90
2019-01-12T20:55:42.875Z,3.60
2019-01-12T20:58:41.948Z,4.30
2019-01-12T21:02:12.191Z,3.40
2019-01-12T21:05:11.667Z,4.87
2019-01-12T21:07:56.324Z,4.10
2019-01-12T21:11:18.730Z,5.10
2019-01-12T21:14:01.417Z,5.73
2019-01-12T21:16:32.248Z,3.50
2019-01-12T21:18:59.705Z,4.77
2019-01-12T21:21:26.957Z,3.63
2019-01-12T21:23:54.167Z,3.37
2019-01-12T21:26:21.237Z,3.47
2019-01-12T21:28:48.473Z,4.33
2019-01-12T21:31:15.629Z,4.60
2019-01-12T21:33:43.367Z,3.47
2019-01-12T21:36:10.631Z,4.03
2019-01-12T21:38:38.798Z,3.60
2019-01-12T21:41:05.969Z,3.77
2019-01-12T21:43:33.223Z,3.10
2019-01-12T21:46:00.385Z,7.47
2019-01-12T21:48:28.268Z,4.30
2019-01-12T21:50:55.477Z,4.40
2019-01-12T21:53:22.780Z,4.60
2019-01-12T21:55:49.973Z,4.47
2019-01-12T21:58:17.821Z,12.10
2019-01-12T22:00:45.153Z,4.23
2019-01-12T22:03:12.257Z,4.23
2019-01-12T22:05:39.731Z,5.00
2019-01-12T22:08:06.888Z,5.23
2019-01-12T22:10:34.108Z,7.93
2019-01-12T22:13:01.357Z,6.10
2019-01-12T22:15:28.656Z,5.00
2019-01-12T22:17:55.742Z,2.90
2019-01-12T22:20:23.238Z,3.90
2019-01-12T22:22:50.410Z,2.80
2019-01-12T22:25:17.623Z,3.00
2019-01-12T22:27:45.162Z,4.27
2019-01-12T22:30:14.460Z,5.70
2019-01-12T22:32:41.667Z,3.33
2019-01-12T22:35:08.872Z,4.97
2019-01-12T22:37:36.308Z,3.60
2019-01-12T22:40:06.941Z,3.37
2019-01-12T22:42:34.182Z,4.50
2019-01-12T22:45:01.254Z,3.10
2019-01-12T22:47:28.570Z,4.97
2019-01-12T22:49:55.677Z,2.90
2019-01-12T22:52:23.131Z,4.47
2019-01-12T22:54:51.160Z,3.77
2019-01-12T22:57:18.356Z,4.13
2019-01-12T22:59:45.566Z,3.67
2019-01-12T23:02:12.763Z,2.40
2019-01-12T23:04:39.975Z,2.43
2019-01-12T23:07:11.421Z,2.63
2019-01-12T23:09:36.574Z,3.00
2019-01-12T23:12:04.180Z,3.60
2019-01-12T23:14:32.976Z,3.80
2019-01-12T23:17:00.329Z,6.60
2019-01-12T23:19:27.773Z,4.67
2019-01-12T23:21:54.943Z,4.60
2019-01-12T23:24:22.027Z,5.77
2019-01-12T23:26:49.983Z,7.93
2019-01-12T23:29:17.167Z,3.90
2019-01-12T23:31:44.253Z,6.07
2019-01-12T23:34:11.480Z,4.90
2019-01-12T23:36:38.807Z,4.10
2019-01-12T23:39:09.818Z,3.10
2019-01-12T23:41:37.026Z,3.00
2019-01-12T23:44:04.247Z,3.30
2019-01-12T23:46:31.428Z,4.17
2019-01-12T23:48:58.612Z,7.03
2019-01-12T23:51:25.821Z,5.07
2019-01-12T23:53:53.251Z,4.50
2019-01-12T23:56:21.096Z,3.20
2019-01-12T23:58:48.265Z,4.33
